sensor_id;sensor_type;location;lat;lon;timestamp;temperature;humidity
22008;DHT22;11168;56.976;24.168;2022-12-18T00:01:19;-4.80;99.90
22008;DHT22;11168;56.976;24.168;2022-12-18T00:03:47;-5.80;99.90
22008;DHT22;11168;56.976;24.168;2022-12-18T00:06:15;-5.80;99.90
22008;DHT22;11168;56.976;24.168;2022-12-18T00:08:43;-5.80;99.90
22008;DHT22;11168;56.976;24.168;2022-12-18T00:11:13;-5.80;99.90
22008;DHT22;11168;56.976;24.168;2022-12-18T00:13:40;-5.80;99.90
22008;DHT22;11168;56.976;24.168;2022-12-18T00:16:11;-5.80;99.90
22008;DHT22;11168;56.976;24.168;2022-12-18T00:18:38;-5.70;99.90
22008;DHT22;11168;56.976;24.168;2022-12-18T00:21:08;-5.70;99.90
22008;DHT22;11168;56.976;24.168;2022-12-18T00:23:36;-5.70;99.90
22008;DHT22;11168;56.976;24.168;2022-12-18T00:26:12;-5.70;99.90
22008;DHT22;11168;56.976;24.168;2022-12-18T00:28:44;-5.70;99.90
22008;DHT22;11168;56.976;24.168;2022-12-18T00:31:13;-5.70;99.90
22008;DHT22;11168;56.976;24.168;2022-12-18T00:33:40;-5.70;99.90
22008;DHT22;11168;56.976;24.168;2022-12-18T00:36:11;-5.90;99.90
22008;DHT22;11168;56.976;24.168;2022-12-18T00:38:39;-5.90;99.90
22008;DHT22;11168;56.976;24.168;2022-12-18T00:41:07;-5.90;99.90
22008;DHT22;11168;56.976;24.168;2022-12-18T00:43:36;-6.00;99.90
22008;DHT22;11168;56.976;24.168;2022-12-18T00:46:04;-6.00;99.90
22008;DHT22;11168;56.976;24.168;2022-12-18T00:48:32;-6.00;99.90
22008;DHT22;11168;56.976;24.168;2022-12-18T00:50:58;-6.10;99.90
22008;DHT22;11168;56.976;24.168;2022-12-18T00:53:25;-6.10;99.90
22008;DHT22;11168;56.976;24.168;2022-12-18T00:55:55;-6.10;99.90
22008;DHT22;11168;56.976;24.168;2022-12-18T00:58:22;-6.10;99.90
22008;DHT22;11168;56.976;24.168;2022-12-18T01:00:49;-6.10;99.90
22008;DHT22;11168;56.976;24.168;2022-12-18T01:03:15;-6.10;99.90
22008;DHT22;11168;56.976;24.168;2022-12-18T01:05:42;-6.20;99.90
22008;DHT22;11168;56.976;24.168;2022-12-18T01:08:09;-6.20;99.90
22008;DHT22;11168;56.976;24.168;2022-12-18T01:10:39;-6.20;99.90
22008;DHT22;11168;56.976;24.168;2022-12-18T01:13:06;-6.10;99.90
22008;DHT22;11168;56.976;24.168;2022-12-18T01:15:33;-6.30;99.90
22008;DHT22;11168;56.976;24.168;2022-12-18T01:18:00;-6.30;99.90
22008;DHT22;11168;56.976;24.168;2022-12-18T01:20:27;-6.30;99.90
22008;DHT22;11168;56.976;24.168;2022-12-18T01:22:54;-6.30;99.90
22008;DHT22;11168;56.976;24.168;2022-12-18T01:25:21;-6.40;99.90
22008;DHT22;11168;56.976;24.168;2022-12-18T01:27:48;-6.40;99.90
22008;DHT22;11168;56.976;24.168;2022-12-18T01:30:15;-6.40;99.90
22008;DHT22;11168;56.976;24.168;2022-12-18T01:32:42;-6.50;99.90
22008;DHT22;11168;56.976;24.168;2022-12-18T01:35:09;-6.50;99.90
22008;DHT22;11168;56.976;24.168;2022-12-18T01:37:36;-6.50;99.90
22008;DHT22;11168;56.976;24.168;2022-12-18T01:40:03;-6.50;99.90
22008;DHT22;11168;56.976;24.168;2022-12-18T01:42:30;-6.60;99.90
22008;DHT22;11168;56.976;24.168;2022-12-18T01:45:27;-6.60;99.90
22008;DHT22;11168;56.976;24.168;2022-12-18T01:48:01;-6.70;99.90
22008;DHT22;11168;56.976;24.168;2022-12-18T01:53:17;-4.40;99.90
22008;DHT22;11168;56.976;24.168;2022-12-18T01:56:03;-6.80;99.90
22008;DHT22;11168;56.976;24.168;2022-12-18T01:59:03;-6.90;99.90
22008;DHT22;11168;56.976;24.168;2022-12-18T02:01:31;-6.90;99.90
22008;DHT22;11168;56.976;24.168;2022-12-18T02:04:34;-7.00;99.90
22008;DHT22;11168;56.976;24.168;2022-12-18T02:09:58;-7.00;99.90
22008;DHT22;11168;56.976;24.168;2022-12-18T02:12:56;-7.00;99.90
22008;DHT22;11168;56.976;24.168;2022-12-18T02:15:36;-7.10;99.90
22008;DHT22;11168;56.976;24.168;2022-12-18T02:18:13;-7.10;99.90
22008;DHT22;11168;56.976;24.168;2022-12-18T02:20:54;-7.10;99.90
22008;DHT22;11168;56.976;24.168;2022-12-18T02:29:17;-6.20;99.90
22008;DHT22;11168;56.976;24.168;2022-12-18T02:31:47;-7.20;99.90
22008;DHT22;11168;56.976;24.168;2022-12-18T02:34:18;-7.30;99.90
22008;DHT22;11168;56.976;24.168;2022-12-18T02:36:46;-7.30;99.90
22008;DHT22;11168;56.976;24.168;2022-12-18T02:39:16;-7.20;99.90
22008;DHT22;11168;56.976;24.168;2022-12-18T02:41:44;-7.30;99.90
22008;DHT22;11168;56.976;24.168;2022-12-18T02:44:13;-7.30;99.90
22008;DHT22;11168;56.976;24.168;2022-12-18T02:46:45;-7.30;99.90
22008;DHT22;11168;56.976;24.168;2022-12-18T02:57:48;-7.20;99.90
22008;DHT22;11168;56.976;24.168;2022-12-18T03:00:29;-7.20;99.90
22008;DHT22;11168;56.976;24.168;2022-12-18T03:05:47;-7.30;99.90
22008;DHT22;11168;56.976;24.168;2022-12-18T03:08:31;-7.30;99.90
22008;DHT22;11168;56.976;24.168;2022-12-18T03:11:04;-7.20;99.90
22008;DHT22;11168;56.976;24.168;2022-12-18T03:16:25;-7.20;99.90
22008;DHT22;11168;56.976;24.168;2022-12-18T03:19:01;-7.20;99.90
22008;DHT22;11168;56.976;24.168;2022-12-18T03:21:33;-7.10;99.90
22008;DHT22;11168;56.976;24.168;2022-12-18T03:24:01;-7.10;99.90
22008;DHT22;11168;56.976;24.168;2022-12-18T03:26:33;-7.10;99.90
22008;DHT22;11168;56.976;24.168;2022-12-18T03:29:11;-7.10;99.90
22008;DHT22;11168;56.976;24.168;2022-12-18T03:31:40;-7.10;99.90
22008;DHT22;11168;56.976;24.168;2022-12-18T03:34:14;-7.10;99.90
22008;DHT22;11168;56.976;24.168;2022-12-18T03:36:42;-7.10;99.90
22008;DHT22;11168;56.976;24.168;2022-12-18T03:39:10;-7.20;99.90
22008;DHT22;11168;56.976;24.168;2022-12-18T03:42:08;-7.20;99.90
22008;DHT22;11168;56.976;24.168;2022-12-18T03:55:32;-7.20;99.90
22008;DHT22;11168;56.976;24.168;2022-12-18T03:58:01;-7.20;99.90
22008;DHT22;11168;56.976;24.168;2022-12-18T04:00:30;-7.30;99.90
22008;DHT22;11168;56.976;24.168;2022-12-18T04:03:00;-7.30;99.90
22008;DHT22;11168;56.976;24.168;2022-12-18T04:05:28;-7.40;99.90
22008;DHT22;11168;56.976;24.168;2022-12-18T04:07:56;-7.40;99.90
22008;DHT22;11168;56.976;24.168;2022-12-18T04:10:23;-7.40;99.90
22008;DHT22;11168;56.976;24.168;2022-12-18T04:12:50;-7.40;99.90
22008;DHT22;11168;56.976;24.168;2022-12-18T04:15:17;-7.40;99.90
22008;DHT22;11168;56.976;24.168;2022-12-18T04:17:48;-7.40;99.90
22008;DHT22;11168;56.976;24.168;2022-12-18T04:20:16;-7.50;99.90
22008;DHT22;11168;56.976;24.168;2022-12-18T04:22:43;-7.50;99.90
22008;DHT22;11168;56.976;24.168;2022-12-18T04:25:11;-7.40;99.90
22008;DHT22;11168;56.976;24.168;2022-12-18T04:27:38;-7.40;99.90
22008;DHT22;11168;56.976;24.168;2022-12-18T04:30:05;-7.40;99.90
22008;DHT22;11168;56.976;24.168;2022-12-18T04:32:34;-7.40;99.90
22008;DHT22;11168;56.976;24.168;2022-12-18T04:35:02;-7.40;99.90
22008;DHT22;11168;56.976;24.168;2022-12-18T04:37:30;-7.40;99.90
22008;DHT22;11168;56.976;24.168;2022-12-18T04:39:57;-7.20;99.90
22008;DHT22;11168;56.976;24.168;2022-12-18T04:42:24;-7.30;99.90
22008;DHT22;11168;56.976;24.168;2022-12-18T04:44:51;-7.30;99.90
22008;DHT22;11168;56.976;24.168;2022-12-18T04:47:18;-7.30;99.90
22008;DHT22;11168;56.976;24.168;2022-12-18T04:49:45;-7.30;99.90
22008;DHT22;11168;56.976;24.168;2022-12-18T04:52:12;-7.30;99.90
22008;DHT22;11168;56.976;24.168;2022-12-18T04:54:38;-7.30;99.90
22008;DHT22;11168;56.976;24.168;2022-12-18T04:57:05;-7.30;99.90
22008;DHT22;11168;56.976;24.168;2022-12-18T04:59:32;-7.40;99.90
22008;DHT22;11168;56.976;24.168;2022-12-18T05:01:59;-7.50;99.90
22008;DHT22;11168;56.976;24.168;2022-12-18T05:04:26;-7.50;99.90
22008;DHT22;11168;56.976;24.168;2022-12-18T05:06:53;-7.60;99.90
22008;DHT22;11168;56.976;24.168;2022-12-18T05:09:20;-7.50;99.90
22008;DHT22;11168;56.976;24.168;2022-12-18T05:11:47;-7.60;99.90
22008;DHT22;11168;56.976;24.168;2022-12-18T05:14:14;-7.60;99.90
22008;DHT22;11168;56.976;24.168;2022-12-18T05:16:41;-7.60;99.90
22008;DHT22;11168;56.976;24.168;2022-12-18T05:19:08;-7.60;99.90
22008;DHT22;11168;56.976;24.168;2022-12-18T05:21:35;-7.60;99.90
22008;DHT22;11168;56.976;24.168;2022-12-18T05:24:02;-7.60;99.90
22008;DHT22;11168;56.976;24.168;2022-12-18T05:26:29;-7.60;99.90
22008;DHT22;11168;56.976;24.168;2022-12-18T05:28:56;-7.60;99.90
22008;DHT22;11168;56.976;24.168;2022-12-18T05:31:23;-7.70;99.90
22008;DHT22;11168;56.976;24.168;2022-12-18T05:33:50;-7.70;99.90
22008;DHT22;11168;56.976;24.168;2022-12-18T05:36:17;-7.70;99.90
22008;DHT22;11168;56.976;24.168;2022-12-18T05:38:44;-7.70;99.90
22008;DHT22;11168;56.976;24.168;2022-12-18T05:41:11;-7.80;99.90
22008;DHT22;11168;56.976;24.168;2022-12-18T05:43:40;-7.80;99.90
22008;DHT22;11168;56.976;24.168;2022-12-18T05:46:14;-7.80;99.90
22008;DHT22;11168;56.976;24.168;2022-12-18T05:48:43;-7.90;99.90
22008;DHT22;11168;56.976;24.168;2022-12-18T05:51:12;-7.90;99.90
22008;DHT22;11168;56.976;24.168;2022-12-18T05:53:39;-7.90;99.90
22008;DHT22;11168;56.976;24.168;2022-12-18T05:56:12;-8.00;99.90
22008;DHT22;11168;56.976;24.168;2022-12-18T05:58:39;-8.00;99.90
22008;DHT22;11168;56.976;24.168;2022-12-18T06:01:18;-8.00;99.90
22008;DHT22;11168;56.976;24.168;2022-12-18T06:03:45;-8.00;99.90
22008;DHT22;11168;56.976;24.168;2022-12-18T06:06:22;-7.90;99.90
22008;DHT22;11168;56.976;24.168;2022-12-18T06:08:50;-8.00;99.90
22008;DHT22;11168;56.976;24.168;2022-12-18T06:11:20;-8.00;99.90
22008;DHT22;11168;56.976;24.168;2022-12-18T06:13:50;-8.00;99.90
22008;DHT22;11168;56.976;24.168;2022-12-18T06:16:24;-8.10;99.90
22008;DHT22;11168;56.976;24.168;2022-12-18T06:18:51;-8.10;99.90
22008;DHT22;11168;56.976;24.168;2022-12-18T06:21:18;-8.10;99.90
22008;DHT22;11168;56.976;24.168;2022-12-18T06:23:45;-8.10;99.90
22008;DHT22;11168;56.976;24.168;2022-12-18T06:26:13;-8.20;99.90
22008;DHT22;11168;56.976;24.168;2022-12-18T06:28:41;-8.20;99.90
22008;DHT22;11168;56.976;24.168;2022-12-18T06:31:08;-8.20;99.90
22008;DHT22;11168;56.976;24.168;2022-12-18T06:33:36;-8.20;99.90
22008;DHT22;11168;56.976;24.168;2022-12-18T06:36:10;-8.30;99.90
22008;DHT22;11168;56.976;24.168;2022-12-18T06:38:40;-8.30;99.90
22008;DHT22;11168;56.976;24.168;2022-12-18T06:41:11;-8.30;99.90
22008;DHT22;11168;56.976;24.168;2022-12-18T06:43:38;-8.40;99.90
22008;DHT22;11168;56.976;24.168;2022-12-18T06:46:06;-8.40;99.90
22008;DHT22;11168;56.976;24.168;2022-12-18T06:48:33;-8.40;99.90
22008;DHT22;11168;56.976;24.168;2022-12-18T06:51:00;-8.40;99.90
22008;DHT22;11168;56.976;24.168;2022-12-18T06:53:28;-8.40;99.90
22008;DHT22;11168;56.976;24.168;2022-12-18T06:56:06;-8.40;99.90
22008;DHT22;11168;56.976;24.168;2022-12-18T06:58:37;-8.40;99.90
22008;DHT22;11168;56.976;24.168;2022-12-18T07:01:06;-8.40;99.90
22008;DHT22;11168;56.976;24.168;2022-12-18T07:03:34;-8.40;99.90
22008;DHT22;11168;56.976;24.168;2022-12-18T07:06:01;-8.40;99.90
22008;DHT22;11168;56.976;24.168;2022-12-18T07:08:29;-8.40;99.90
22008;DHT22;11168;56.976;24.168;2022-12-18T07:10:56;-8.40;99.90
22008;DHT22;11168;56.976;24.168;2022-12-18T07:13:23;-8.50;99.90
22008;DHT22;11168;56.976;24.168;2022-12-18T07:15:50;-8.50;99.90
22008;DHT22;11168;56.976;24.168;2022-12-18T07:18:17;-8.50;99.90
22008;DHT22;11168;56.976;24.168;2022-12-18T07:20:44;-8.50;99.90
22008;DHT22;11168;56.976;24.168;2022-12-18T07:23:13;-8.40;99.90
22008;DHT22;11168;56.976;24.168;2022-12-18T07:25:40;-8.50;99.90
22008;DHT22;11168;56.976;24.168;2022-12-18T07:28:07;-8.50;99.90
22008;DHT22;11168;56.976;24.168;2022-12-18T07:30:41;-8.50;99.90
22008;DHT22;11168;56.976;24.168;2022-12-18T07:33:08;-8.50;99.90
22008;DHT22;11168;56.976;24.168;2022-12-18T07:35:35;-8.40;99.90
22008;DHT22;11168;56.976;24.168;2022-12-18T07:38:04;-8.50;99.90
22008;DHT22;11168;56.976;24.168;2022-12-18T07:40:33;-8.50;99.90
22008;DHT22;11168;56.976;24.168;2022-12-18T07:43:02;-8.40;99.90
22008;DHT22;11168;56.976;24.168;2022-12-18T07:45:29;-8.50;99.90
22008;DHT22;11168;56.976;24.168;2022-12-18T07:47:56;-8.40;99.90
22008;DHT22;11168;56.976;24.168;2022-12-18T07:50:23;-8.40;99.90
22008;DHT22;11168;56.976;24.168;2022-12-18T07:52:50;-8.40;99.90
22008;DHT22;11168;56.976;24.168;2022-12-18T07:55:17;-8.40;99.90
22008;DHT22;11168;56.976;24.168;2022-12-18T07:57:44;-8.40;99.90
22008;DHT22;11168;56.976;24.168;2022-12-18T08:00:17;-7.90;99.90
22008;DHT22;11168;56.976;24.168;2022-12-18T08:02:44;-7.30;99.90
22008;DHT22;11168;56.976;24.168;2022-12-18T08:05:11;-6.90;99.90
22008;DHT22;11168;56.976;24.168;2022-12-18T08:07:41;-6.60;99.90
22008;DHT22;11168;56.976;24.168;2022-12-18T08:10:08;-6.50;99.90
22008;DHT22;11168;56.976;24.168;2022-12-18T08:12:35;-5.90;99.90
22008;DHT22;11168;56.976;24.168;2022-12-18T08:15:02;-5.50;99.90
22008;DHT22;11168;56.976;24.168;2022-12-18T08:17:30;-5.60;99.90
22008;DHT22;11168;56.976;24.168;2022-12-18T08:19:57;-5.20;99.90
22008;DHT22;11168;56.976;24.168;2022-12-18T08:22:24;-4.90;99.90
22008;DHT22;11168;56.976;24.168;2022-12-18T08:24:52;-4.80;99.90
22008;DHT22;11168;56.976;24.168;2022-12-18T08:27:18;-4.70;99.90
22008;DHT22;11168;56.976;24.168;2022-12-18T08:29:56;-4.40;99.90
22008;DHT22;11168;56.976;24.168;2022-12-18T08:32:23;-4.10;99.90
22008;DHT22;11168;56.976;24.168;2022-12-18T08:34:50;-4.10;99.90
22008;DHT22;11168;56.976;24.168;2022-12-18T08:37:18;-3.80;99.90
22008;DHT22;11168;56.976;24.168;2022-12-18T08:39:45;-3.60;99.90
22008;DHT22;11168;56.976;24.168;2022-12-18T08:42:12;-3.70;99.90
22008;DHT22;11168;56.976;24.168;2022-12-18T08:45:14;-3.50;99.90
22008;DHT22;11168;56.976;24.168;2022-12-18T08:47:41;-3.10;99.90
22008;DHT22;11168;56.976;24.168;2022-12-18T08:50:09;-3.20;99.90
22008;DHT22;11168;56.976;24.168;2022-12-18T08:52:36;-3.20;99.90
22008;DHT22;11168;56.976;24.168;2022-12-18T08:55:03;-3.20;99.90
22008;DHT22;11168;56.976;24.168;2022-12-18T08:57:30;-2.70;99.90
22008;DHT22;11168;56.976;24.168;2022-12-18T08:59:57;-2.50;99.90
22008;DHT22;11168;56.976;24.168;2022-12-18T09:02:24;-2.70;99.90
22008;DHT22;11168;56.976;24.168;2022-12-18T09:04:51;-2.60;99.90
22008;DHT22;11168;56.976;24.168;2022-12-18T09:07:23;-2.50;99.90
22008;DHT22;11168;56.976;24.168;2022-12-18T09:09:50;-2.60;99.90
22008;DHT22;11168;56.976;24.168;2022-12-18T09:12:17;-2.80;99.90
22008;DHT22;11168;56.976;24.168;2022-12-18T09:14:44;-2.80;99.90
22008;DHT22;11168;56.976;24.168;2022-12-18T09:17:10;-2.60;99.90
22008;DHT22;11168;56.976;24.168;2022-12-18T09:19:37;-2.50;99.90
22008;DHT22;11168;56.976;24.168;2022-12-18T09:22:05;-2.50;99.90
22008;DHT22;11168;56.976;24.168;2022-12-18T09:24:32;-2.30;99.90
22008;DHT22;11168;56.976;24.168;2022-12-18T09:26:58;-1.50;99.90
22008;DHT22;11168;56.976;24.168;2022-12-18T09:29:25;-2.10;99.90
22008;DHT22;11168;56.976;24.168;2022-12-18T09:31:52;-2.20;99.90
22008;DHT22;11168;56.976;24.168;2022-12-18T09:34:19;-2.30;99.90
22008;DHT22;11168;56.976;24.168;2022-12-18T09:36:48;-1.50;99.90
22008;DHT22;11168;56.976;24.168;2022-12-18T09:39:16;-1.20;99.90
22008;DHT22;11168;56.976;24.168;2022-12-18T09:41:50;-1.50;99.90
22008;DHT22;11168;56.976;24.168;2022-12-18T09:44:29;-1.40;99.90
22008;DHT22;11168;56.976;24.168;2022-12-18T09:47:13;-0.90;99.90
22008;DHT22;11168;56.976;24.168;2022-12-18T09:49:50;-0.60;99.90
22008;DHT22;11168;56.976;24.168;2022-12-18T09:52:27;-0.80;99.90
22008;DHT22;11168;56.976;24.168;2022-12-18T09:57:51;-0.90;99.90
22008;DHT22;11168;56.976;24.168;2022-12-18T10:00:22;-1.10;99.90
22008;DHT22;11168;56.976;24.168;2022-12-18T10:02:55;-1.00;99.90
22008;DHT22;11168;56.976;24.168;2022-12-18T10:05:35;-0.80;99.90
22008;DHT22;11168;56.976;24.168;2022-12-18T10:10:48;-0.80;99.90
22008;DHT22;11168;56.976;24.168;2022-12-18T10:13:33;-0.80;99.90
22008;DHT22;11168;56.976;24.168;2022-12-18T10:21:51;-0.90;99.90
22008;DHT22;11168;56.976;24.168;2022-12-18T10:27:23;-0.70;99.90
22008;DHT22;11168;56.976;24.168;2022-12-18T10:29:50;-0.10;99.90
22008;DHT22;11168;56.976;24.168;2022-12-18T10:32:26;0.50;99.90
22008;DHT22;11168;56.976;24.168;2022-12-18T10:34:55;0.60;99.90
22008;DHT22;11168;56.976;24.168;2022-12-18T10:37:28;0.70;99.90
22008;DHT22;11168;56.976;24.168;2022-12-18T10:40:25;1.00;99.90
22008;DHT22;11168;56.976;24.168;2022-12-18T10:54:20;-0.20;99.90
22008;DHT22;11168;56.976;24.168;2022-12-18T10:56:48;0.20;99.90
22008;DHT22;11168;56.976;24.168;2022-12-18T10:59:16;-0.10;99.90
22008;DHT22;11168;56.976;24.168;2022-12-18T11:01:55;0.10;99.90
22008;DHT22;11168;56.976;24.168;2022-12-18T11:04:29;-0.10;99.90
22008;DHT22;11168;56.976;24.168;2022-12-18T11:07:03;0.10;99.90
22008;DHT22;11168;56.976;24.168;2022-12-18T11:09:35;0.20;99.90
22008;DHT22;11168;56.976;24.168;2022-12-18T11:12:23;0.10;99.90
22008;DHT22;11168;56.976;24.168;2022-12-18T11:14:54;0.00;99.90
22008;DHT22;11168;56.976;24.168;2022-12-18T11:17:35;0.10;99.90
22008;DHT22;11168;56.976;24.168;2022-12-18T11:20:05;0.00;99.90
22008;DHT22;11168;56.976;24.168;2022-12-18T11:22:35;0.00;99.90
22008;DHT22;11168;56.976;24.168;2022-12-18T11:25:21;0.30;99.90
22008;DHT22;11168;56.976;24.168;2022-12-18T11:30:31;-0.60;99.90
22008;DHT22;11168;56.976;24.168;2022-12-18T11:35:52;-1.70;99.90
22008;DHT22;11168;56.976;24.168;2022-12-18T11:38:25;-2.30;99.90
22008;DHT22;11168;56.976;24.168;2022-12-18T11:43:35;-3.10;99.90
22008;DHT22;11168;56.976;24.168;2022-12-18T11:46:09;-3.40;99.90
22008;DHT22;11168;56.976;24.168;2022-12-18T11:51:53;-3.60;99.90
22008;DHT22;11168;56.976;24.168;2022-12-18T11:54:22;-3.60;99.90
22008;DHT22;11168;56.976;24.168;2022-12-18T11:56:56;-3.50;99.90
22008;DHT22;11168;56.976;24.168;2022-12-18T12:01:58;-3.40;99.90
22008;DHT22;11168;56.976;24.168;2022-12-18T12:10:24;-3.30;99.90
22008;DHT22;11168;56.976;24.168;2022-12-18T12:23:52;-3.70;99.90
22008;DHT22;11168;56.976;24.168;2022-12-18T12:26:47;-3.80;99.90
22008;DHT22;11168;56.976;24.168;2022-12-18T12:29:50;-3.70;99.90
22008;DHT22;11168;56.976;24.168;2022-12-18T12:37:50;-3.80;99.90
22008;DHT22;11168;56.976;24.168;2022-12-18T12:40:24;-3.70;99.90
22008;DHT22;11168;56.976;24.168;2022-12-18T12:45:55;-3.70;99.90
22008;DHT22;11168;56.976;24.168;2022-12-18T12:51:21;-3.70;99.90
22008;DHT22;11168;56.976;24.168;2022-12-18T12:53:50;-3.70;99.90
22008;DHT22;11168;56.976;24.168;2022-12-18T12:56:20;-3.70;99.90
22008;DHT22;11168;56.976;24.168;2022-12-18T13:01:35;-3.80;99.90
22008;DHT22;11168;56.976;24.168;2022-12-18T13:04:23;-3.80;99.90
22008;DHT22;11168;56.976;24.168;2022-12-18T13:07:23;-3.70;99.90
22008;DHT22;11168;56.976;24.168;2022-12-18T13:16:16;-3.70;99.90
22008;DHT22;11168;56.976;24.168;2022-12-18T13:18:35;-3.60;99.90
22008;DHT22;11168;56.976;24.168;2022-12-18T13:21:14;-3.60;99.90
22008;DHT22;11168;56.976;24.168;2022-12-18T13:23:44;-3.60;99.90
22008;DHT22;11168;56.976;24.168;2022-12-18T13:28:55;-3.60;99.90
22008;DHT22;11168;56.976;24.168;2022-12-18T13:34:21;-3.60;99.90
22008;DHT22;11168;56.976;24.168;2022-12-18T13:36:57;-3.60;99.90
22008;DHT22;11168;56.976;24.168;2022-12-18T13:39:33;-3.60;99.90
22008;DHT22;11168;56.976;24.168;2022-12-18T13:42:37;-3.50;99.90
22008;DHT22;11168;56.976;24.168;2022-12-18T13:45:38;-3.50;99.90
22008;DHT22;11168;56.976;24.168;2022-12-18T13:48:18;-3.50;99.90
22008;DHT22;11168;56.976;24.168;2022-12-18T13:50:56;-3.50;99.90
22008;DHT22;11168;56.976;24.168;2022-12-18T13:53:28;-3.50;99.90
22008;DHT22;11168;56.976;24.168;2022-12-18T13:55:56;-3.50;99.90
22008;DHT22;11168;56.976;24.168;2022-12-18T13:58:24;-3.50;99.90
22008;DHT22;11168;56.976;24.168;2022-12-18T14:00:50;-3.60;99.90
22008;DHT22;11168;56.976;24.168;2022-12-18T14:03:20;-3.50;99.90
22008;DHT22;11168;56.976;24.168;2022-12-18T14:06:08;-3.50;99.90
22008;DHT22;11168;56.976;24.168;2022-12-18T14:08:41;-3.50;99.90
22008;DHT22;11168;56.976;24.168;2022-12-18T14:11:20;-3.60;99.90
22008;DHT22;11168;56.976;24.168;2022-12-18T14:13:49;-3.60;99.90
22008;DHT22;11168;56.976;24.168;2022-12-18T14:16:17;-3.60;99.90
22008;DHT22;11168;56.976;24.168;2022-12-18T14:18:57;-3.60;99.90
22008;DHT22;11168;56.976;24.168;2022-12-18T14:21:39;-3.70;99.90
22008;DHT22;11168;56.976;24.168;2022-12-18T14:26:35;-3.70;99.90
22008;DHT22;11168;56.976;24.168;2022-12-18T14:29:35;-3.70;99.90
22008;DHT22;11168;56.976;24.168;2022-12-18T14:32:18;-3.50;99.90
22008;DHT22;11168;56.976;24.168;2022-12-18T14:34:50;-3.60;99.90
22008;DHT22;11168;56.976;24.168;2022-12-18T14:37:22;-3.60;99.90
22008;DHT22;11168;56.976;24.168;2022-12-18T14:40:00;-3.60;99.90
22008;DHT22;11168;56.976;24.168;2022-12-18T14:42:36;-3.60;99.90
22008;DHT22;11168;56.976;24.168;2022-12-18T14:45:32;-3.60;99.90
22008;DHT22;11168;56.976;24.168;2022-12-18T14:48:17;-3.50;99.90
22008;DHT22;11168;56.976;24.168;2022-12-18T14:50:59;-3.50;99.90
22008;DHT22;11168;56.976;24.168;2022-12-18T14:56:01;-3.50;99.90
22008;DHT22;11168;56.976;24.168;2022-12-18T14:58:29;-3.50;99.90
22008;DHT22;11168;56.976;24.168;2022-12-18T15:00:56;-3.60;99.90
22008;DHT22;11168;56.976;24.168;2022-12-18T15:03:25;-3.50;99.90
22008;DHT22;11168;56.976;24.168;2022-12-18T15:05:52;-3.50;99.90
22008;DHT22;11168;56.976;24.168;2022-12-18T15:08:35;-3.60;99.90
22008;DHT22;11168;56.976;24.168;2022-12-18T15:11:03;-3.50;99.90
22008;DHT22;11168;56.976;24.168;2022-12-18T15:13:37;-3.50;99.90
22008;DHT22;11168;56.976;24.168;2022-12-18T15:16:11;-3.60;99.90
22008;DHT22;11168;56.976;24.168;2022-12-18T15:18:42;-3.50;99.90
22008;DHT22;11168;56.976;24.168;2022-12-18T15:21:11;-3.50;99.90
22008;DHT22;11168;56.976;24.168;2022-12-18T15:23:52;-3.50;99.90
22008;DHT22;11168;56.976;24.168;2022-12-18T15:26:21;-3.40;99.90
22008;DHT22;11168;56.976;24.168;2022-12-18T15:28:53;-3.30;99.90
22008;DHT22;11168;56.976;24.168;2022-12-18T15:36:22;-3.10;99.90
22008;DHT22;11168;56.976;24.168;2022-12-18T15:38:54;-3.00;99.90
22008;DHT22;11168;56.976;24.168;2022-12-18T15:41:35;-3.00;99.90
22008;DHT22;11168;56.976;24.168;2022-12-18T15:44:22;-2.90;99.90
22008;DHT22;11168;56.976;24.168;2022-12-18T15:46:52;-2.80;99.90
22008;DHT22;11168;56.976;24.168;2022-12-18T15:49:22;-2.80;99.90
22008;DHT22;11168;56.976;24.168;2022-12-18T15:51:52;-2.80;99.90
22008;DHT22;11168;56.976;24.168;2022-12-18T15:54:20;-2.70;99.90
22008;DHT22;11168;56.976;24.168;2022-12-18T15:57:11;-2.70;99.90
22008;DHT22;11168;56.976;24.168;2022-12-18T15:59:55;-2.80;99.90
22008;DHT22;11168;56.976;24.168;2022-12-18T16:02:25;-2.70;99.90
22008;DHT22;11168;56.976;24.168;2022-12-18T16:04:52;-2.70;99.90
22008;DHT22;11168;56.976;24.168;2022-12-18T16:07:21;-2.60;99.90
22008;DHT22;11168;56.976;24.168;2022-12-18T16:09:51;-2.60;99.90
22008;DHT22;11168;56.976;24.168;2022-12-18T16:12:22;-2.60;99.90
22008;DHT22;11168;56.976;24.168;2022-12-18T16:14:50;-2.50;99.90
22008;DHT22;11168;56.976;24.168;2022-12-18T16:17:17;-2.50;99.90
22008;DHT22;11168;56.976;24.168;2022-12-18T16:19:44;-2.40;99.90
22008;DHT22;11168;56.976;24.168;2022-12-18T16:22:21;-2.30;99.90
22008;DHT22;11168;56.976;24.168;2022-12-18T16:24:49;-2.20;99.90
22008;DHT22;11168;56.976;24.168;2022-12-18T16:27:17;-2.20;99.90
22008;DHT22;11168;56.976;24.168;2022-12-18T16:29:44;-2.10;99.90
22008;DHT22;11168;56.976;24.168;2022-12-18T16:32:14;-2.10;99.90
22008;DHT22;11168;56.976;24.168;2022-12-18T16:34:42;-2.10;99.90
22008;DHT22;11168;56.976;24.168;2022-12-18T16:37:12;-2.00;99.90
22008;DHT22;11168;56.976;24.168;2022-12-18T16:39:40;-2.10;99.90
22008;DHT22;11168;56.976;24.168;2022-12-18T16:42:15;-2.10;99.90
22008;DHT22;11168;56.976;24.168;2022-12-18T16:44:46;-2.10;99.90
22008;DHT22;11168;56.976;24.168;2022-12-18T16:47:13;-2.10;99.90
22008;DHT22;11168;56.976;24.168;2022-12-18T16:49:42;-2.00;99.90
22008;DHT22;11168;56.976;24.168;2022-12-18T16:52:09;-2.10;99.90
22008;DHT22;11168;56.976;24.168;2022-12-18T16:54:36;-2.10;99.90
22008;DHT22;11168;56.976;24.168;2022-12-18T16:57:03;-2.10;99.90
22008;DHT22;11168;56.976;24.168;2022-12-18T16:59:37;-2.10;99.90
22008;DHT22;11168;56.976;24.168;2022-12-18T17:02:04;-2.10;99.90
22008;DHT22;11168;56.976;24.168;2022-12-18T17:04:31;-2.10;99.90
22008;DHT22;11168;56.976;24.168;2022-12-18T17:06:59;-2.00;99.90
22008;DHT22;11168;56.976;24.168;2022-12-18T17:09:26;-2.00;99.90
22008;DHT22;11168;56.976;24.168;2022-12-18T17:11:53;-1.90;99.90
22008;DHT22;11168;56.976;24.168;2022-12-18T17:14:22;-1.90;99.90
22008;DHT22;11168;56.976;24.168;2022-12-18T17:16:50;-1.90;99.90
22008;DHT22;11168;56.976;24.168;2022-12-18T17:19:37;-1.90;99.90
22008;DHT22;11168;56.976;24.168;2022-12-18T17:22:04;-1.90;99.90
22008;DHT22;11168;56.976;24.168;2022-12-18T17:24:31;-1.80;99.90
22008;DHT22;11168;56.976;24.168;2022-12-18T17:27:01;-1.80;99.90
22008;DHT22;11168;56.976;24.168;2022-12-18T17:29:28;-1.80;99.90
22008;DHT22;11168;56.976;24.168;2022-12-18T17:31:55;-1.70;99.90
22008;DHT22;11168;56.976;24.168;2022-12-18T17:34:25;-1.80;99.90
22008;DHT22;11168;56.976;24.168;2022-12-18T17:36:52;-1.70;99.90
22008;DHT22;11168;56.976;24.168;2022-12-18T17:39:19;-1.70;99.90
22008;DHT22;11168;56.976;24.168;2022-12-18T17:41:48;-1.60;99.90
22008;DHT22;11168;56.976;24.168;2022-12-18T17:44:15;-1.60;99.90
22008;DHT22;11168;56.976;24.168;2022-12-18T17:46:44;-1.60;99.90
22008;DHT22;11168;56.976;24.168;2022-12-18T17:49:12;-1.60;99.90
22008;DHT22;11168;56.976;24.168;2022-12-18T17:51:40;-1.60;99.90